This is the latest recevied weather packets stored in our database for station/object W5DRO-13. If no packets are shown the sender has not sent any weather packets the latest 10 day(s).
| Time | Temp. | Humidity | Pressure | Rain* | Wind** | Luminosity | Snow |
|---|---|---|---|---|---|---|---|
| 1777803032 | 11.67° C | 71% | 1018.6 hPa | 0 mm | - | - | - |
| 1777802729 | 11.67° C | 71% | 1018.7 hPa | 0 mm | - | - | - |
| 1777802427 | 11.67° C | 71% | 1018.8 hPa | 0 mm | - | - | - |
| 1777801215 | 11.67° C | 71% | 1019 hPa | 0 mm | - | - | - |
| 1777800912 | 12.22° C | 71% | 1019.1 hPa | 0 mm | - | - | - |
| 1777800609 | 12.22° C | 70% | 1019.4 hPa | 0 mm | - | - | - |
| 1777800305 | 12.22° C | 70% | 1019.4 hPa | 0 mm | - | - | - |
| 1777800001 | 12.22° C | 71% | 1019.5 hPa | 0 mm | - | - | - |
| 1777799696 | 11.67° C | 71% | 1019.5 hPa | 0 mm | - | - | - |
| 1777799394 | 11.67° C | 72% | 1019.5 hPa | 0 mm | - | - | - |
| 1777798785 | 11.67° C | 73% | 1019.5 hPa | 0 mm | - | - | - |
| 1777798482 | 11.67° C | 74% | 1019.4 hPa | 0 mm | - | - | - |
| 1777798179 | 11.67° C | 75% | 1019.7 hPa | 0 mm | - | - | - |
| 1777797574 | 11.11° C | 77% | 1019.5 hPa | 0 mm | - | - | - |
| 1777797271 | 11.11° C | 77% | 1019.8 hPa | 0 mm | - | - | - |
| 1777796968 | 10.56° C | 79% | 1019.8 hPa | 0 mm | - | - | - |
| 1777796665 | 10.56° C | 82% | 1019.6 hPa | 0 mm | - | - | - |
| 1777796361 | 9.44° C | 85% | 1019.9 hPa | 0 mm | - | - | - |
| 1777796056 | 8.33° C | 90% | 1019.9 hPa | 0 mm | - | - | - |
| 1777795753 | 7.78° C | 89% | 1019.7 hPa | 0 mm | - | - | - |
| 1777795450 | 7.78° C | 88% | 1019.9 hPa | 0 mm | - | - | - |
| 1777795146 | 7.78° C | 87% | 1019.9 hPa | 0 mm | - | - | - |
| 1777794841 | 8.33° C | 87% | 1020 hPa | 0 mm | - | - | - |
| 1777794539 | 8.33° C | 86% | 1020.2 hPa | 0 mm | - | - | - |
| 1777793931 | 8.89° C | 85% | 1020 hPa | 0 mm | - | - | - |
* Rain latest hour (hover to see other rain measurements)
** Current wind speed in m/s (hover to see current wind gust speed)